Portada
METAR-TAF:

METAR-TAF

Aeroports :

Teheran, Iran

latitud: 35-41N, longitud: 051-21E, altitud: 1204 m

Observació

L'informe es va fer fa 32 minuts, a les 13:00 UTC
Vent 14 kt del Oest
Temperatura 31°C
Humitat 14%
Pressió 1013 hPa
Visibilitat: 8000 m
Escasses núvols a una alçada de 3500 ft

METAR: OIII 261300Z 27014KT 8000 FEW035 31/00 Q1012 A2991 NOSIG

Hora: 18:02 (13:32 UTC)

Pronòstic

L'informe es va fer fa 2 hores i 32 minuts, a les 11:00 UTC
Pronòstic vàlid del 26 a les 12 UTC al 27 a les 18 UTC
Vent 8 kt del Sud-Oest
Visibilitat: 7000 m
Escasses núvols a una alçada de 3000 ft
Temporalment
l' 26 a les 12 UTC al 26 a les 18 UTC
Vent 14 kt del Oest/Nord-Oest amb ràfegues de 23 kt
Visibilitat: 3000 m
Escasses núvols a una alçada de 3500 ft, Cumulus congestus.
Núvols disperses a una alçada de 4000 ft
Cel ennuvolat a una alçada de 10000 ft
sorra

TAF: OIII 261100Z 2612/2718 22004MPS 7000 FEW030 TEMPO 2612/2618 30007G12MPS 3000 SA FEW035TCU SCT040 BKN100

Observacions i pronòstics meteorològics de més de 4000 aeroports (METAR i TAF).

Les estacions disponibles són els punts grocs i vermells al mapa.

Posi el ratolí al punt desitjat per veure el nom de l'estació.

Feu clic per veure les observacions i els pronòstics meteorològics.

Per canviar el mapa: feu clic els botons verds amb una creu de color negre per apropar; al botó verd amb un guió per allunyar la imatge; o en les fletxes verdes per a mapes adjacents.


METAR-TAF: